Time,TemperatureF,DewpointF,PressureIn,WindDirection,WindDirectionDegrees,WindSpeedMPH,WindSpeedGustMPH,Humidity,HourlyPrecipIn,Conditions,Clouds,dailyrainin,SoftwareType,DateUTC
2013-10-13 00:00:00,42.3,39.0,30.05,WNW,292,0.0,0.0,88,0.00,,---,0.00,VWS V14.00,2013-10-13 05:00:00,
2013-10-13 00:05:00,42.2,38.9,30.05,WNW,292,0.0,1.0,88,0.00,,---,0.00,VWS V14.00,2013-10-13 05:05:00,
2013-10-13 00:10:00,42.1,38.8,30.05,WNW,292,0.0,0.0,88,0.00,,---,0.00,VWS V14.00,2013-10-13 05:10:00,
2013-10-13 00:15:00,42.0,39.0,30.06,WNW,292,0.0,0.0,89,0.00,,---,0.00,VWS V14.00,2013-10-13 05:15:00,
2013-10-13 00:20:00,41.8,38.8,30.06,WNW,292,0.0,0.0,89,0.00,,---,0.00,VWS V14.00,2013-10-13 05:20:00,
2013-10-13 00:25:00,41.6,38.6,30.06,WNW,292,0.0,0.0,89,0.00,,---,0.00,VWS V14.00,2013-10-13 05:25:00,
2013-10-13 00:30:00,41.4,38.4,30.06,WNW,292,0.0,0.0,89,0.00,,---,0.00,VWS V14.00,2013-10-13 05:30:00,
2013-10-13 00:35:00,41.2,38.2,30.07,WNW,292,0.0,0.0,89,0.00,,---,0.00,VWS V14.00,2013-10-13 05:35:00,
2013-10-13 00:40:00,41.2,38.5,30.07,WNW,292,0.0,1.0,90,0.00,,---,0.00,VWS V14.00,2013-10-13 05:40:00,
2013-10-13 00:45:00,41.3,38.6,30.07,WNW,292,0.0,1.0,90,0.00,,---,0.00,VWS V14.00,2013-10-13 05:45:00,
2013-10-13 00:50:00,41.2,38.5,30.07,WNW,292,0.0,0.0,90,0.00,,---,0.00,VWS V14.00,2013-10-13 05:50:00,
2013-10-13 00:55:00,41.1,38.4,30.08,WNW,292,0.0,0.0,90,0.00,,---,0.00,VWS V14.00,2013-10-13 05:55:00,
2013-10-13 01:00:00,41.1,38.4,30.08,WNW,292,0.0,2.0,90,0.00,,---,0.00,VWS V14.00,2013-10-13 06:00:00,
2013-10-13 01:05:00,41.4,39.0,30.08,WNW,292,0.0,2.0,91,0.00,,---,0.00,VWS V14.00,2013-10-13 06:05:00,
2013-10-13 01:10:00,41.9,39.2,30.08,WNW,292,0.0,0.0,90,0.00,,---,0.00,VWS V14.00,2013-10-13 06:10:00,
2013-10-13 01:15:00,42.2,39.2,30.08,WNW,292,0.0,0.0,89,0.00,,---,0.00,VWS V14.00,2013-10-13 06:15:00,
2013-10-13 01:20:00,42.4,39.4,30.08,WNW,292,0.0,1.0,89,0.00,,---,0.00,VWS V14.00,2013-10-13 06:20:00,
2013-10-13 01:25:00,42.8,39.5,30.08,WNW,292,0.0,0.0,88,0.00,,---,0.00,VWS V14.00,2013-10-13 06:25:00,
2013-10-13 01:30:00,43.1,39.8,30.09,WNW,292,0.0,0.0,88,0.00,,---,0.00,VWS V14.00,2013-10-13 06:30:00,
2013-10-13 01:35:00,43.5,39.9,30.09,WNW,292,0.0,0.0,87,0.00,,---,0.00,VWS V14.00,2013-10-13 06:35:00,
2013-10-13 01:40:00,43.4,39.5,30.09,WNW,292,0.0,0.0,86,0.00,,---,0.00,VWS V14.00,2013-10-13 06:40:00,
2013-10-13 01:45:00,43.1,39.2,30.10,WNW,292,0.0,0.0,86,0.00,,---,0.00,VWS V14.00,2013-10-13 06:45:00,
2013-10-13 01:50:00,42.7,38.8,30.10,WNW,292,0.0,0.0,86,0.00,,---,0.00,VWS V14.00,2013-10-13 06:50:00,
2013-10-13 01:55:00,42.5,38.6,30.10,WNW,292,0.0,0.0,86,0.00,,---,0.00,VWS V14.00,2013-10-13 06:55:00,
2013-10-13 02:00:00,42.3,38.7,30.10,WNW,292,0.0,0.0,87,0.00,,---,0.00,VWS V14.00,2013-10-13 07:00:00,
2013-10-13 02:05:00,42.3,38.7,30.10,WNW,292,0.0,0.0,87,0.00,,---,0.00,VWS V14.00,2013-10-13 07:05:00,
2013-10-13 02:10:00,42.1,38.5,30.10,WNW,292,0.0,0.0,87,0.00,,---,0.00,VWS V14.00,2013-10-13 07:10:00,
2013-10-13 02:15:00,42.0,38.4,30.11,WNW,292,0.0,0.0,87,0.00,,---,0.00,VWS V14.00,2013-10-13 07:15:00,
2013-10-13 02:20:00,41.8,38.2,30.11,WNW,292,0.0,0.0,87,0.00,,---,0.00,VWS V14.00,2013-10-13 07:20:00,
2013-10-13 02:25:00,41.4,37.8,30.11,WNW,292,0.0,0.0,87,0.00,,---,0.00,VWS V14.00,2013-10-13 07:25:00,
2013-10-13 02:30:00,41.1,37.5,30.11,WNW,292,0.0,0.0,87,0.00,,---,0.00,VWS V14.00,2013-10-13 07:30:00,
2013-10-13 02:35:00,40.7,37.1,30.11,WNW,292,0.0,1.0,87,0.00,,---,0.00,VWS V14.00,2013-10-13 07:35:00,
2013-10-13 02:40:00,40.6,37.3,30.11,WNW,292,0.0,0.0,88,0.00,,---,0.00,VWS V14.00,2013-10-13 07:40:00,
2013-10-13 02:45:00,40.4,37.1,30.11,WNW,292,0.0,0.0,88,0.00,,---,0.00,VWS V14.00,2013-10-13 07:45:00,
2013-10-13 02:50:00,40.1,37.1,30.11,WNW,292,0.0,1.0,89,0.00,,---,0.00,VWS V14.00,2013-10-13 07:50:00,
2013-10-13 02:55:00,39.9,36.9,30.11,WNW,292,0.0,0.0,89,0.00,,---,0.00,VWS V14.00,2013-10-13 07:55:00,
2013-10-13 03:00:00,39.7,36.7,30.11,WNW,292,0.0,0.0,89,0.00,,---,0.00,VWS V14.00,2013-10-13 08:00:00,
2013-10-13 03:05:00,39.4,36.4,30.12,WNW,292,0.0,0.0,89,0.00,,---,0.00,VWS V14.00,2013-10-13 08:05:00,
2013-10-13 03:10:00,39.2,36.2,30.12,WNW,292,0.0,0.0,89,0.00,,---,0.00,VWS V14.00,2013-10-13 08:10:00,
2013-10-13 03:15:00,39.2,36.5,30.12,WNW,292,0.0,0.0,90,0.00,,---,0.00,VWS V14.00,2013-10-13 08:15:00,
2013-10-13 03:20:00,39.4,37.0,30.12,WNW,292,0.0,0.0,91,0.00,,---,0.00,VWS V14.00,2013-10-13 08:20:00,
2013-10-13 03:25:00,39.5,37.1,30.12,WNW,292,0.0,0.0,91,0.00,,---,0.00,VWS V14.00,2013-10-13 08:25:00,
2013-10-13 03:30:00,39.2,36.8,30.13,WNW,292,0.0,0.0,91,0.00,,---,0.00,VWS V14.00,2013-10-13 08:30:00,
2013-10-13 03:35:00,38.9,36.2,30.13,WNW,292,0.0,0.0,90,0.00,,---,0.00,VWS V14.00,2013-10-13 08:35:00,
2013-10-13 03:40:00,38.7,36.3,30.13,WNW,292,0.0,0.0,91,0.00,,---,0.00,VWS V14.00,2013-10-13 08:40:00,
2013-10-13 03:45:00,38.7,36.3,30.14,WNW,292,0.0,0.0,91,0.00,,---,0.00,VWS V14.00,2013-10-13 08:45:00,
2013-10-13 03:50:00,38.7,36.6,30.14,WNW,292,0.0,0.0,92,0.00,,---,0.00,VWS V14.00,2013-10-13 08:50:00,
2013-10-13 03:55:00,38.9,36.8,30.14,WNW,292,0.0,1.0,92,0.00,,---,0.00,VWS V14.00,2013-10-13 08:55:00,
2013-10-13 04:00:00,39.0,36.9,30.14,WNW,292,0.0,0.0,92,0.00,,---,0.00,VWS V14.00,2013-10-13 09:00:00,
2013-10-13 04:05:00,38.8,36.7,30.15,WNW,292,0.0,0.0,92,0.00,,---,0.00,VWS V14.00,2013-10-13 09:05:00,
2013-10-13 04:10:00,38.5,36.1,30.15,WNW,292,0.0,0.0,91,0.00,,---,0.00,VWS V14.00,2013-10-13 09:10:00,
2013-10-13 04:15:00,38.3,36.2,30.15,WNW,292,0.0,0.0,92,0.00,,---,0.00,VWS V14.00,2013-10-13 09:15:00,
2013-10-13 04:20:00,38.2,36.1,30.16,WNW,292,0.0,0.0,92,0.00,,---,0.00,VWS V14.00,2013-10-13 09:20:00,
2013-10-13 04:25:00,38.0,35.9,30.16,WNW,292,0.0,0.0,92,0.00,,---,0.00,VWS V14.00,2013-10-13 09:25:00,
2013-10-13 04:30:00,38.1,36.0,30.16,WNW,292,0.0,0.0,92,0.00,,---,0.00,VWS V14.00,2013-10-13 09:30:00,
2013-10-13 04:35:00,38.2,36.4,30.16,WNW,292,0.0,1.0,93,0.00,,---,0.00,VWS V14.00,2013-10-13 09:35:00,
2013-10-13 04:40:00,38.1,36.0,30.16,WNW,292,0.0,0.0,92,0.00,,---,0.00,VWS V14.00,2013-10-13 09:40:00,
2013-10-13 04:45:00,38.0,36.2,30.17,WNW,292,0.0,0.0,93,0.00,,---,0.00,VWS V14.00,2013-10-13 09:45:00,
2013-10-13 04:50:00,38.1,36.3,30.17,WNW,292,0.0,0.0,93,0.00,,---,0.00,VWS V14.00,2013-10-13 09:50:00,
2013-10-13 04:55:00,37.8,36.0,30.17,WNW,292,0.0,0.0,93,0.00,,---,0.00,VWS V14.00,2013-10-13 09:55:00,
2013-10-13 05:00:00,37.6,35.5,30.17,WNW,292,0.0,0.0,92,0.00,,---,0.00,VWS V14.00,2013-10-13 10:00:00,
2013-10-13 05:05:00,37.3,35.5,30.17,WNW,292,0.0,0.0,93,0.00,,---,0.00,VWS V14.00,2013-10-13 10:05:00,
2013-10-13 05:10:00,37.1,35.3,30.17,WNW,292,0.0,0.0,93,0.00,,---,0.00,VWS V14.00,2013-10-13 10:10:00,
2013-10-13 05:15:00,37.1,35.3,30.18,WNW,292,0.0,0.0,93,0.00,,---,0.00,VWS V14.00,2013-10-13 10:15:00,
2013-10-13 05:20:00,37.1,35.3,30.18,WNW,292,0.0,0.0,93,0.00,,---,0.00,VWS V14.00,2013-10-13 10:20:00,
2013-10-13 05:25:00,37.1,35.3,30.18,WNW,292,0.0,0.0,93,0.00,,---,0.00,VWS V14.00,2013-10-13 10:25:00,
2013-10-13 05:30:00,36.9,35.1,30.18,WNW,292,0.0,0.0,93,0.00,,---,0.00,VWS V14.00,2013-10-13 10:30:00,
2013-10-13 05:35:00,36.8,35.0,30.19,WNW,292,0.0,0.0,93,0.00,,---,0.00,VWS V14.00,2013-10-13 10:35:00,
2013-10-13 05:40:00,36.6,34.8,30.19,WNW,292,0.0,0.0,93,0.00,,---,0.00,VWS V14.00,2013-10-13 10:40:00,
2013-10-13 05:45:00,36.6,34.8,30.19,WNW,292,0.0,0.0,93,0.00,,---,0.00,VWS V14.00,2013-10-13 10:45:00,
2013-10-13 05:50:00,36.6,35.0,30.19,WNW,292,0.0,0.0,94,0.00,,---,0.00,VWS V14.00,2013-10-13 10:50:00,
2013-10-13 05:55:00,36.6,35.0,30.19,WNW,292,0.0,0.0,94,0.00,,---,0.00,VWS V14.00,2013-10-13 10:55:00,
2013-10-13 06:00:00,36.4,34.6,30.20,WNW,292,0.0,0.0,93,0.00,,---,0.00,VWS V14.00,2013-10-13 11:00:00,
2013-10-13 06:05:00,36.2,34.4,30.20,WNW,292,0.0,0.0,93,0.00,,---,0.00,VWS V14.00,2013-10-13 11:05:00,
2013-10-13 06:10:00,36.1,34.5,30.21,WNW,292,0.0,0.0,94,0.00,,---,0.00,VWS V14.00,2013-10-13 11:10:00,
2013-10-13 06:15:00,36.0,34.4,30.21,WNW,292,0.0,0.0,94,0.00,,---,0.00,VWS V14.00,2013-10-13 11:15:00,
2013-10-13 06:20:00,36.2,34.6,30.21,WNW,292,0.0,0.0,94,0.00,,---,0.00,VWS V14.00,2013-10-13 11:20:00,
2013-10-13 06:25:00,36.5,34.9,30.21,WNW,292,0.0,0.0,94,0.00,,---,0.00,VWS V14.00,2013-10-13 11:25:00,
2013-10-13 06:30:00,36.7,35.1,30.21,WNW,292,0.0,0.0,94,0.00,,---,0.00,VWS V14.00,2013-10-13 11:30:00,
2013-10-13 06:35:00,36.4,34.8,30.21,WNW,292,0.0,0.0,94,0.00,,---,0.00,VWS V14.00,2013-10-13 11:35:00,
2013-10-13 06:40:00,36.2,34.6,30.22,WNW,292,0.0,0.0,94,0.00,,---,0.00,VWS V14.00,2013-10-13 11:40:00,
2013-10-13 06:45:00,36.2,34.6,30.22,WNW,292,0.0,0.0,94,0.00,,---,0.00,VWS V14.00,2013-10-13 11:45:00,
2013-10-13 06:50:00,36.0,34.4,30.22,WNW,292,0.0,0.0,94,0.00,,---,0.00,VWS V14.00,2013-10-13 11:50:00,
2013-10-13 06:55:00,35.7,34.2,30.22,WNW,292,0.0,0.0,94,0.00,,---,0.00,VWS V14.00,2013-10-13 11:55:00,
2013-10-13 07:00:00,35.6,34.0,30.22,WNW,292,0.0,0.0,94,0.00,,---,0.00,VWS V14.00,2013-10-13 12:00:00,
2013-10-13 07:05:00,35.5,34.0,30.23,WNW,292,0.0,0.0,94,0.00,,---,0.00,VWS V14.00,2013-10-13 12:05:00,
2013-10-13 07:10:00,35.5,34.0,30.23,WNW,292,0.0,0.0,94,0.00,,---,0.00,VWS V14.00,2013-10-13 12:10:00,
2013-10-13 07:15:00,35.4,33.8,30.24,WNW,292,0.0,0.0,94,0.00,,---,0.00,VWS V14.00,2013-10-13 12:15:00,
2013-10-13 07:20:00,35.5,34.2,30.24,WNW,292,0.0,0.0,95,0.00,,---,0.00,VWS V14.00,2013-10-13 12:20:00,
2013-10-13 07:25:00,35.5,34.2,30.24,WNW,292,0.0,0.0,95,0.00,,---,0.00,VWS V14.00,2013-10-13 12:25:00,
2013-10-13 07:30:00,35.6,34.3,30.24,WNW,292,0.0,0.0,95,0.00,,---,0.00,VWS V14.00,2013-10-13 12:30:00,
2013-10-13 07:35:00,36.0,34.7,30.24,WNW,292,0.0,0.0,95,0.00,,---,0.00,VWS V14.00,2013-10-13 12:35:00,
2013-10-13 07:40:00,36.5,35.2,30.24,WNW,292,0.0,0.0,95,0.00,,---,0.00,VWS V14.00,2013-10-13 12:40:00,
2013-10-13 07:45:00,37.2,36.2,30.24,WNW,292,0.0,0.0,96,0.00,,---,0.00,VWS V14.00,2013-10-13 12:45:00,
2013-10-13 07:50:00,37.8,36.8,30.24,WNW,292,0.0,0.0,96,0.00,,---,0.00,VWS V14.00,2013-10-13 12:50:00,
2013-10-13 07:55:00,38.2,36.9,30.24,WNW,292,0.0,0.0,95,0.00,,---,0.00,VWS V14.00,2013-10-13 12:55:00,
2013-10-13 08:00:00,38.7,37.4,30.25,WNW,292,0.0,0.0,95,0.00,,---,0.00,VWS V14.00,2013-10-13 13:00:00,
2013-10-13 08:05:00,39.4,38.1,30.25,WNW,292,0.0,0.0,95,0.00,,---,0.00,VWS V14.00,2013-10-13 13:05:00,
2013-10-13 08:10:00,40.3,39.0,30.26,WNW,292,0.0,0.0,95,0.00,,---,0.00,VWS V14.00,2013-10-13 13:10:00,
2013-10-13 08:15:00,41.0,39.4,30.26,WNW,292,0.0,0.0,94,0.00,,---,0.00,VWS V14.00,2013-10-13 13:15:00,
2013-10-13 08:20:00,41.7,39.8,30.26,WNW,292,0.0,0.0,93,0.00,,---,0.00,VWS V14.00,2013-10-13 13:20:00,
2013-10-13 08:25:00,42.4,40.2,30.26,WNW,292,0.0,0.0,92,0.00,,---,0.00,VWS V14.00,2013-10-13 13:25:00,
2013-10-13 08:30:00,42.9,40.2,30.26,WNW,292,0.0,0.0,90,0.00,,---,0.00,VWS V14.00,2013-10-13 13:30:00,
2013-10-13 08:35:00,43.5,40.8,30.26,WNW,292,0.0,0.0,90,0.00,,---,0.00,VWS V14.00,2013-10-13 13:35:00,
2013-10-13 08:40:00,44.2,41.2,30.27,WNW,292,0.0,1.0,89,0.00,,---,0.00,VWS V14.00,2013-10-13 13:40:00,
2013-10-13 08:45:00,45.3,42.3,30.26,WNW,292,0.0,3.0,89,0.00,,---,0.00,VWS V14.00,2013-10-13 13:45:00,
2013-10-13 08:50:00,46.5,43.4,30.27,WNW,292,0.0,4.0,89,0.00,,---,0.00,VWS V14.00,2013-10-13 13:50:00,
2013-10-13 08:55:00,47.8,44.1,30.27,WNW,292,1.0,4.0,87,0.00,,---,0.00,VWS V14.00,2013-10-13 13:55:00,
2013-10-13 09:00:00,48.5,43.6,30.27,WNW,292,1.0,4.0,83,0.00,,---,0.00,VWS V14.00,2013-10-13 14:00:00,
2013-10-13 09:05:00,48.9,43.3,30.27,WNW,292,0.0,4.0,81,0.00,,---,0.00,VWS V14.00,2013-10-13 14:05:00,
2013-10-13 09:10:00,49.7,43.5,30.27,WNW,292,0.0,4.0,79,0.00,,---,0.00,VWS V14.00,2013-10-13 14:10:00,
2013-10-13 09:15:00,49.9,43.7,30.27,WNW,292,0.0,2.0,79,0.00,,---,0.00,VWS V14.00,2013-10-13 14:15:00,
2013-10-13 09:20:00,50.1,43.5,30.28,WNW,292,0.0,4.0,78,0.00,,---,0.00,VWS V14.00,2013-10-13 14:20:00,
2013-10-13 09:25:00,50.3,43.7,30.28,NW,315,1.0,5.0,78,0.00,,---,0.00,VWS V14.00,2013-10-13 14:25:00,
2013-10-13 09:30:00,50.5,43.6,30.28,NW,315,1.0,9.0,77,0.00,,---,0.00,VWS V14.00,2013-10-13 14:30:00,
2013-10-13 09:35:00,50.9,44.0,30.28,NW,315,0.0,4.0,77,0.00,,---,0.00,VWS V14.00,2013-10-13 14:35:00,
2013-10-13 09:40:00,51.1,43.5,30.28,NW,315,1.0,6.0,75,0.00,,---,0.00,VWS V14.00,2013-10-13 14:40:00,
2013-10-13 09:45:00,51.3,44.0,30.28,NW,315,1.0,5.0,76,0.00,,---,0.00,VWS V14.00,2013-10-13 14:45:00,
2013-10-13 09:50:00,51.8,44.1,30.28,NW,315,0.0,5.0,75,0.00,,---,0.00,VWS V14.00,2013-10-13 14:50:00,
2013-10-13 09:55:00,52.1,44.1,30.28,NW,315,0.0,7.0,74,0.00,,---,0.00,VWS V14.00,2013-10-13 14:55:00,
2013-10-13 10:00:00,52.4,44.0,30.28,WNW,292,1.0,4.0,73,0.00,,---,0.00,VWS V14.00,2013-10-13 15:00:00,
2013-10-13 10:05:00,53.0,45.3,30.28,NW,315,1.0,6.0,75,0.00,,---,0.00,VWS V14.00,2013-10-13 15:05:00,
2013-10-13 10:10:00,53.2,44.4,30.28,NW,315,1.0,7.0,72,0.00,,---,0.00,VWS V14.00,2013-10-13 15:10:00,
2013-10-13 10:15:00,53.6,44.8,30.28,NNW,338,1.0,6.0,72,0.00,,---,0.00,VWS V14.00,2013-10-13 15:15:00,
2013-10-13 10:20:00,53.6,44.4,30.29,NNW,338,4.0,10.0,71,0.00,,---,0.00,VWS V14.00,2013-10-13 15:20:00,
2013-10-13 10:25:00,53.7,43.8,30.29,NW,315,3.0,10.0,69,0.00,,---,0.00,VWS V14.00,2013-10-13 15:25:00,
2013-10-13 10:30:00,54.2,45.0,30.29,NW,315,1.0,4.0,71,0.00,,---,0.00,VWS V14.00,2013-10-13 15:30:00,
2013-10-13 10:35:00,55.0,44.3,30.29,NW,315,1.0,6.0,67,0.00,,---,0.00,VWS V14.00,2013-10-13 15:35:00,
2013-10-13 10:40:00,54.9,43.0,30.29,NW,315,2.0,10.0,64,0.00,,---,0.00,VWS V14.00,2013-10-13 15:40:00,
2013-10-13 10:45:00,54.9,43.8,30.29,WNW,292,2.0,6.0,66,0.00,,---,0.00,VWS V14.00,2013-10-13 15:45:00,
2013-10-13 10:50:00,55.1,44.0,30.29,WNW,292,1.0,9.0,66,0.00,,---,0.00,VWS V14.00,2013-10-13 15:50:00,
2013-10-13 10:55:00,55.3,42.9,30.29,North,0,2.0,12.0,63,0.00,,---,0.00,VWS V14.00,2013-10-13 15:55:00,
2013-10-13 11:00:00,55.3,43.3,30.29,North,0,3.0,7.0,64,0.00,,---,0.00,VWS V14.00,2013-10-13 16:00:00,
2013-10-13 11:05:00,55.1,43.2,30.30,North,0,3.0,9.0,64,0.00,,---,0.00,VWS V14.00,2013-10-13 16:05:00,
2013-10-13 11:10:00,55.0,43.1,30.29,North,0,3.0,9.0,64,0.00,,---,0.00,VWS V14.00,2013-10-13 16:10:00,
2013-10-13 11:15:00,55.2,43.2,30.29,NW,315,3.0,9.0,64,0.00,,---,0.00,VWS V14.00,2013-10-13 16:15:00,
2013-10-13 11:20:00,55.6,41.5,30.29,NW,315,4.0,11.0,59,0.00,,---,0.00,VWS V14.00,2013-10-13 16:20:00,
2013-10-13 11:25:00,56.0,40.5,30.29,NW,315,4.0,10.0,56,0.00,,---,0.00,VWS V14.00,2013-10-13 16:25:00,
2013-10-13 11:30:00,56.4,42.7,30.29,North,0,3.0,14.0,60,0.00,,---,0.00,VWS V14.00,2013-10-13 16:30:00,
2013-10-13 11:35:00,57.1,41.6,30.29,NNW,338,1.0,11.0,56,0.00,,---,0.00,VWS V14.00,2013-10-13 16:35:00,
2013-10-13 11:40:00,56.9,39.5,30.30,North,0,6.0,14.0,52,0.00,,---,0.00,VWS V14.00,2013-10-13 16:40:00,
2013-10-13 11:45:00,57.1,40.2,30.30,NW,315,3.0,7.0,53,0.00,,---,0.00,VWS V14.00,2013-10-13 16:45:00,
2013-10-13 11:50:00,57.4,39.4,30.29,NW,315,2.0,10.0,51,0.00,,---,0.00,VWS V14.00,2013-10-13 16:50:00,
2013-10-13 11:55:00,57.4,39.4,30.30,North,0,5.0,13.0,51,0.00,,---,0.00,VWS V14.00,2013-10-13 16:55:00,
2013-10-13 12:00:00,57.5,39.0,30.29,WNW,292,3.0,10.0,50,0.00,,---,0.00,VWS V14.00,2013-10-13 17:00:00,
2013-10-13 12:05:00,57.8,40.3,30.29,North,0,1.0,6.0,52,0.00,,---,0.00,VWS V14.00,2013-10-13 17:05:00,
2013-10-13 12:10:00,58.2,40.2,30.30,NNE,22,2.0,11.0,51,0.00,,---,0.00,VWS V14.00,2013-10-13 17:10:00,
2013-10-13 12:15:00,57.9,38.9,30.30,NNW,338,6.0,13.0,49,0.00,,---,0.00,VWS V14.00,2013-10-13 17:15:00,
2013-10-13 12:20:00,57.8,38.3,30.30,WNW,292,5.0,14.0,48,0.00,,---,0.00,VWS V14.00,2013-10-13 17:20:00,
2013-10-13 12:25:00,57.7,38.2,30.29,North,0,4.0,11.0,48,0.00,,---,0.00,VWS V14.00,2013-10-13 17:25:00,
2013-10-13 12:30:00,58.1,38.5,30.29,NW,315,3.0,12.0,48,0.00,,---,0.00,VWS V14.00,2013-10-13 17:30:00,
2013-10-13 12:35:00,58.4,37.7,30.29,NNW,338,3.0,12.0,46,0.00,,---,0.00,VWS V14.00,2013-10-13 17:35:00,
2013-10-13 12:40:00,58.5,39.4,30.29,NNW,338,2.0,11.0,49,0.00,,---,0.00,VWS V14.00,2013-10-13 17:40:00,
2013-10-13 12:45:00,58.7,39.1,30.28,NNW,338,3.0,10.0,48,0.00,,---,0.00,VWS V14.00,2013-10-13 17:45:00,
2013-10-13 12:50:00,58.7,38.0,30.28,NW,315,2.0,11.0,46,0.00,,---,0.00,VWS V14.00,2013-10-13 17:50:00,
2013-10-13 12:55:00,59.1,39.5,30.28,NW,315,2.0,6.0,48,0.00,,---,0.00,VWS V14.00,2013-10-13 17:55:00,
2013-10-13 13:00:00,59.3,40.2,30.28,NW,315,2.0,8.0,49,0.00,,---,0.00,VWS V14.00,2013-10-13 18:00:00,
2013-10-13 13:05:00,59.4,39.7,30.28,WNW,292,2.0,6.0,48,0.00,,---,0.00,VWS V14.00,2013-10-13 18:05:00,
2013-10-13 13:10:00,59.6,39.4,30.28,NW,315,3.0,9.0,47,0.00,,---,0.00,VWS V14.00,2013-10-13 18:10:00,
2013-10-13 13:15:00,59.6,38.8,30.27,NW,315,2.0,9.0,46,0.00,,---,0.00,VWS V14.00,2013-10-13 18:15:00,
2013-10-13 13:20:00,59.4,38.6,30.28,North,0,3.0,11.0,46,0.00,,---,0.00,VWS V14.00,2013-10-13 18:20:00,
2013-10-13 13:25:00,59.6,40.4,30.28,NNW,338,2.0,11.0,49,0.00,,---,0.00,VWS V14.00,2013-10-13 18:25:00,
2013-10-13 13:30:00,59.6,39.4,30.27,North,0,3.0,9.0,47,0.00,,---,0.00,VWS V14.00,2013-10-13 18:30:00,
2013-10-13 13:35:00,59.4,39.7,30.27,NNW,338,2.0,10.0,48,0.00,,---,0.00,VWS V14.00,2013-10-13 18:35:00,
2013-10-13 13:40:00,59.6,39.9,30.27,NW,315,1.0,6.0,48,0.00,,---,0.00,VWS V14.00,2013-10-13 18:40:00,
2013-10-13 13:45:00,59.9,39.1,30.27,NNW,338,2.0,8.0,46,0.00,,---,0.00,VWS V14.00,2013-10-13 18:45:00,
2013-10-13 13:50:00,60.2,39.4,30.27,WNW,292,1.0,9.0,46,0.00,,---,0.00,VWS V14.00,2013-10-13 18:50:00,
2013-10-13 13:55:00,60.1,38.7,30.26,NNW,338,5.0,12.0,45,0.00,,---,0.00,VWS V14.00,2013-10-13 18:55:00,
2013-10-13 14:00:00,60.1,38.7,30.26,WNW,292,3.0,10.0,45,0.00,,---,0.00,VWS V14.00,2013-10-13 19:00:00,
2013-10-13 14:05:00,60.2,38.8,30.26,NW,315,2.0,7.0,45,0.00,,---,0.00,VWS V14.00,2013-10-13 19:05:00,
2013-10-13 14:10:00,60.3,37.7,30.26,NNW,338,2.0,9.0,43,0.00,,---,0.00,VWS V14.00,2013-10-13 19:10:00,
2013-10-13 14:15:00,60.5,39.1,30.26,NW,315,1.0,7.0,45,0.00,,---,0.00,VWS V14.00,2013-10-13 19:15:00,
2013-10-13 14:20:00,60.7,38.1,30.26,WNW,292,1.0,7.0,43,0.00,,---,0.00,VWS V14.00,2013-10-13 19:20:00,
2013-10-13 14:25:00,60.9,37.7,30.26,NNW,338,2.0,10.0,42,0.00,,---,0.00,VWS V14.00,2013-10-13 19:25:00,
2013-10-13 14:30:00,61.0,37.2,30.26,NW,315,1.0,6.0,41,0.00,,---,0.00,VWS V14.00,2013-10-13 19:30:00,
2013-10-13 14:35:00,60.9,35.1,30.26,NW,315,4.0,14.0,38,0.00,,---,0.00,VWS V14.00,2013-10-13 19:35:00,
2013-10-13 14:40:00,60.6,35.5,30.26,NW,315,2.0,11.0,39,0.00,,---,0.00,VWS V14.00,2013-10-13 19:40:00,
2013-10-13 14:45:00,60.8,36.3,30.26,NW,315,0.0,3.0,40,0.00,,---,0.00,VWS V14.00,2013-10-13 19:45:00,
2013-10-13 14:50:00,61.2,35.4,30.25,NNW,338,3.0,10.0,38,0.00,,---,0.00,VWS V14.00,2013-10-13 19:50:00,
2013-10-13 14:55:00,61.1,35.3,30.25,NW,315,3.0,11.0,38,0.00,,---,0.00,VWS V14.00,2013-10-13 19:55:00,
2013-10-13 15:00:00,61.0,33.9,30.25,NNW,338,5.0,10.0,36,0.00,,---,0.00,VWS V14.00,2013-10-13 20:00:00,
2013-10-13 15:05:00,60.9,35.8,30.25,North,0,1.0,6.0,39,0.00,,---,0.00,VWS V14.00,2013-10-13 20:05:00,
2013-10-13 15:10:00,60.9,35.1,30.25,NNW,338,4.0,10.0,38,0.00,,---,0.00,VWS V14.00,2013-10-13 20:10:00,
2013-10-13 15:15:00,61.1,36.6,30.25,NNW,338,1.0,8.0,40,0.00,,---,0.00,VWS V14.00,2013-10-13 20:15:00,
2013-10-13 15:20:00,61.3,36.2,30.25,WNW,292,2.0,7.0,39,0.00,,---,0.00,VWS V14.00,2013-10-13 20:20:00,
2013-10-13 15:25:00,61.4,36.9,30.25,NW,315,1.0,6.0,40,0.00,,---,0.00,VWS V14.00,2013-10-13 20:25:00,
2013-10-13 15:30:00,61.8,36.6,30.24,WNW,292,0.0,3.0,39,0.00,,---,0.00,VWS V14.00,2013-10-13 20:30:00,
2013-10-13 15:35:00,61.6,34.4,30.25,NNW,338,3.0,7.0,36,0.00,,---,0.00,VWS V14.00,2013-10-13 20:35:00,
2013-10-13 15:40:00,61.4,36.2,30.25,NW,315,1.0,5.0,39,0.00,,---,0.00,VWS V14.00,2013-10-13 20:40:00,
2013-10-13 15:45:00,61.2,35.4,30.25,NNW,338,3.0,9.0,38,0.00,,---,0.00,VWS V14.00,2013-10-13 20:45:00,
2013-10-13 15:50:00,61.3,34.1,30.25,North,0,0.0,3.0,36,0.00,,---,0.00,VWS V14.00,2013-10-13 20:50:00,
2013-10-13 15:55:00,61.3,34.8,30.25,NW,315,1.0,4.0,37,0.00,,---,0.00,VWS V14.00,2013-10-13 20:55:00,
2013-10-13 16:00:00,61.4,34.9,30.25,NW,315,1.0,5.0,37,0.00,,---,0.00,VWS V14.00,2013-10-13 21:00:00,
2013-10-13 16:05:00,61.5,35.7,30.25,NW,315,0.0,4.0,38,0.00,,---,0.00,VWS V14.00,2013-10-13 21:05:00,
2013-10-13 16:10:00,61.6,35.1,30.25,NNW,338,2.0,7.0,37,0.00,,---,0.00,VWS V14.00,2013-10-13 21:10:00,
2013-10-13 16:15:00,61.4,34.9,30.25,NNW,338,1.0,5.0,37,0.00,,---,0.00,VWS V14.00,2013-10-13 21:15:00,
2013-10-13 16:20:00,61.2,34.7,30.25,North,0,0.0,4.0,37,0.00,,---,0.00,VWS V14.00,2013-10-13 21:20:00,
2013-10-13 16:25:00,61.2,35.4,30.25,NNW,338,1.0,4.0,38,0.00,,---,0.00,VWS V14.00,2013-10-13 21:25:00,
2013-10-13 16:30:00,61.2,34.7,30.25,NNW,338,0.0,5.0,37,0.00,,---,0.00,VWS V14.00,2013-10-13 21:30:00,
2013-10-13 16:35:00,61.3,35.5,30.26,West,270,1.0,3.0,38,0.00,,---,0.00,VWS V14.00,2013-10-13 21:35:00,
2013-10-13 16:40:00,60.8,34.4,30.26,SSW,202,0.0,2.0,37,0.00,,---,0.00,VWS V14.00,2013-10-13 21:40:00,
2013-10-13 16:45:00,60.2,34.5,30.26,SSW,202,0.0,1.0,38,0.00,,---,0.00,VWS V14.00,2013-10-13 21:45:00,
2013-10-13 16:50:00,59.9,34.2,30.26,NW,315,0.0,4.0,38,0.00,,---,0.00,VWS V14.00,2013-10-13 21:50:00,
2013-10-13 16:55:00,59.6,35.3,30.26,NNW,338,1.0,6.0,40,0.00,,---,0.00,VWS V14.00,2013-10-13 21:55:00,
2013-10-13 17:00:00,59.3,35.0,30.26,NW,315,0.0,3.0,40,0.00,,---,0.00,VWS V14.00,2013-10-13 22:00:00,
2013-10-13 17:05:00,59.1,34.2,30.26,NW,315,0.0,2.0,39,0.00,,---,0.00,VWS V14.00,2013-10-13 22:05:00,
2013-10-13 17:10:00,59.0,34.7,30.26,NW,315,0.0,3.0,40,0.00,,---,0.00,VWS V14.00,2013-10-13 22:10:00,
2013-10-13 17:15:00,58.8,35.2,30.26,NW,315,0.0,2.0,41,0.00,,---,0.00,VWS V14.00,2013-10-13 22:15:00,
2013-10-13 17:20:00,58.6,35.6,30.26,NW,315,0.0,0.0,42,0.00,,---,0.00,VWS V14.00,2013-10-13 22:20:00,
2013-10-13 17:25:00,58.2,36.4,30.26,NW,315,0.0,1.0,44,0.00,,---,0.00,VWS V14.00,2013-10-13 22:25:00,
2013-10-13 17:30:00,57.6,35.9,30.26,NW,315,0.0,1.0,44,0.00,,---,0.00,VWS V14.00,2013-10-13 22:30:00,
2013-10-13 17:35:00,56.9,35.8,30.26,NW,315,0.0,0.0,45,0.00,,---,0.00,VWS V14.00,2013-10-13 22:35:00,
2013-10-13 17:40:00,56.5,36.0,30.26,NW,315,0.0,1.0,46,0.00,,---,0.00,VWS V14.00,2013-10-13 22:40:00,
2013-10-13 17:45:00,55.9,36.5,30.26,NW,315,0.0,1.0,48,0.00,,---,0.00,VWS V14.00,2013-10-13 22:45:00,
2013-10-13 17:50:00,55.2,36.9,30.27,NW,315,0.0,0.0,50,0.00,,---,0.00,VWS V14.00,2013-10-13 22:50:00,
2013-10-13 17:55:00,54.6,37.3,30.27,NW,315,0.0,0.0,52,0.00,,---,0.00,VWS V14.00,2013-10-13 22:55:00,
2013-10-13 18:00:00,54.1,36.9,30.27,NW,315,0.0,0.0,52,0.00,,---,0.00,VWS V14.00,2013-10-13 23:00:00,
2013-10-13 18:05:00,53.7,37.0,30.28,NW,315,0.0,0.0,53,0.00,,---,0.00,VWS V14.00,2013-10-13 23:05:00,
2013-10-13 18:10:00,53.2,37.0,30.28,NW,315,0.0,0.0,54,0.00,,---,0.00,VWS V14.00,2013-10-13 23:10:00,
2013-10-13 18:15:00,52.8,37.1,30.28,NW,315,0.0,0.0,55,0.00,,---,0.00,VWS V14.00,2013-10-13 23:15:00,
2013-10-13 18:20:00,52.4,36.7,30.28,NW,315,0.0,1.0,55,0.00,,---,0.00,VWS V14.00,2013-10-13 23:20:00,
2013-10-13 18:25:00,52.1,36.9,30.28,NW,315,0.0,1.0,56,0.00,,---,0.00,VWS V14.00,2013-10-13 23:25:00,
2013-10-13 18:30:00,51.8,36.6,30.29,NW,315,0.0,0.0,56,0.00,,---,0.00,VWS V14.00,2013-10-13 23:30:00,
2013-10-13 18:35:00,51.4,36.2,30.29,NW,315,0.0,1.0,56,0.00,,---,0.00,VWS V14.00,2013-10-13 23:35:00,
2013-10-13 18:40:00,50.9,37.1,30.29,NW,315,0.0,0.0,59,0.00,,---,0.00,VWS V14.00,2013-10-13 23:40:00,
2013-10-13 18:45:00,50.2,36.9,30.29,NW,315,0.0,0.0,60,0.00,,---,0.00,VWS V14.00,2013-10-13 23:45:00,
2013-10-13 18:50:00,49.4,36.9,30.29,NW,315,0.0,0.0,62,0.00,,---,0.00,VWS V14.00,2013-10-13 23:50:00,
2013-10-13 18:55:00,48.9,37.3,30.29,NW,315,0.0,0.0,64,0.00,,---,0.00,VWS V14.00,2013-10-13 23:55:00,
2013-10-13 19:00:00,48.4,37.2,30.29,NW,315,0.0,0.0,65,0.00,,---,0.00,VWS V14.00,2013-10-14 00:00:00,
2013-10-13 19:05:00,47.8,37.4,30.29,NW,315,0.0,0.0,67,0.00,,---,0.00,VWS V14.00,2013-10-14 00:05:00,
2013-10-13 19:10:00,47.3,37.3,30.29,NW,315,0.0,0.0,68,0.00,,---,0.00,VWS V14.00,2013-10-14 00:10:00,
2013-10-13 19:15:00,46.9,37.3,30.29,NW,315,0.0,0.0,69,0.00,,---,0.00,VWS V14.00,2013-10-14 00:15:00,
2013-10-13 19:20:00,46.6,37.7,30.29,NW,315,0.0,0.0,71,0.00,,---,0.00,VWS V14.00,2013-10-14 00:20:00,
2013-10-13 19:25:00,46.2,37.3,30.29,NW,315,0.0,0.0,71,0.00,,---,0.00,VWS V14.00,2013-10-14 00:25:00,
2013-10-13 19:30:00,45.7,37.2,30.29,NW,315,0.0,0.0,72,0.00,,---,0.00,VWS V14.00,2013-10-14 00:30:00,
2013-10-13 19:35:00,45.3,37.2,30.29,NW,315,0.0,0.0,73,0.00,,---,0.00,VWS V14.00,2013-10-14 00:35:00,
2013-10-13 19:40:00,45.1,37.3,30.29,NW,315,0.0,0.0,74,0.00,,---,0.00,VWS V14.00,2013-10-14 00:40:00,
2013-10-13 19:45:00,44.8,37.4,30.30,NW,315,0.0,0.0,75,0.00,,---,0.00,VWS V14.00,2013-10-14 00:45:00,
2013-10-13 19:50:00,44.7,37.6,30.30,NW,315,0.0,0.0,76,0.00,,---,0.00,VWS V14.00,2013-10-14 00:50:00,
2013-10-13 19:55:00,44.5,37.8,30.30,NW,315,0.0,0.0,77,0.00,,---,0.00,VWS V14.00,2013-10-14 00:55:00,
2013-10-13 20:00:00,44.3,37.6,30.30,NW,315,0.0,0.0,77,0.00,,---,0.00,VWS V14.00,2013-10-14 01:00:00,
2013-10-13 20:05:00,43.8,37.1,30.29,NW,315,0.0,0.0,77,0.00,,---,0.00,VWS V14.00,2013-10-14 01:05:00,
2013-10-13 20:10:00,43.4,37.0,30.29,NW,315,0.0,0.0,78,0.00,,---,0.00,VWS V14.00,2013-10-14 01:10:00,
2013-10-13 20:15:00,43.2,37.1,30.29,NW,315,0.0,0.0,79,0.00,,---,0.00,VWS V14.00,2013-10-14 01:15:00,
2013-10-13 20:20:00,42.9,37.2,30.29,NW,315,0.0,0.0,80,0.00,,---,0.00,VWS V14.00,2013-10-14 01:20:00,
2013-10-13 20:25:00,42.9,37.5,30.29,NW,315,0.0,0.0,81,0.00,,---,0.00,VWS V14.00,2013-10-14 01:25:00,
2013-10-13 20:30:00,42.8,37.4,30.30,NW,315,0.0,0.0,81,0.00,,---,0.00,VWS V14.00,2013-10-14 01:30:00,
2013-10-13 20:35:00,42.7,37.3,30.29,NW,315,0.0,0.0,81,0.00,,---,0.00,VWS V14.00,2013-10-14 01:35:00,
2013-10-13 20:40:00,42.5,37.1,30.30,NW,315,0.0,0.0,81,0.00,,---,0.00,VWS V14.00,2013-10-14 01:40:00,
2013-10-13 20:45:00,42.1,36.7,30.30,NW,315,0.0,0.0,81,0.00,,---,0.00,VWS V14.00,2013-10-14 01:45:00,
2013-10-13 20:50:00,41.8,36.7,30.30,NW,315,0.0,0.0,82,0.00,,---,0.00,VWS V14.00,2013-10-14 01:50:00,
2013-10-13 20:55:00,44.5,37.8,30.30,NW,315,0.0,0.0,77,0.00,,---,0.00,VWS V14.00,2013-10-14 01:55:00,
2013-10-13 20:58:00,41.8,36.7,30.30,NW,315,0.0,0.0,82,0.00,,---,0.00,VWS V14.00,2013-10-14 01:58:00,
2013-10-13 21:00:00,40.9,36.1,30.29,NW,322,0.0,0.0,83,0.00,,---,0.00,VWS V14.00,2013-10-14 02:00:00,
2013-10-13 21:05:00,40.8,36.3,30.29,NW,322,0.0,0.0,84,0.00,,---,0.00,VWS V14.00,2013-10-14 02:05:00,
2013-10-13 21:10:00,40.6,36.5,30.29,NW,322,0.0,0.0,85,0.00,,---,0.00,VWS V14.00,2013-10-14 02:10:00,
2013-10-13 21:15:00,40.4,36.3,30.29,NW,322,0.0,0.0,85,0.00,,---,0.00,VWS V14.00,2013-10-14 02:15:00,
2013-10-13 21:20:00,40.1,36.0,30.29,NW,322,0.0,0.0,85,0.00,,---,0.00,VWS V14.00,2013-10-14 02:20:00,
2013-10-13 21:25:00,39.8,36.0,30.29,NW,322,0.0,0.0,86,0.00,,---,0.00,VWS V14.00,2013-10-14 02:25:00,
2013-10-13 21:30:00,39.8,36.2,30.29,NW,322,0.0,0.0,87,0.00,,---,0.00,VWS V14.00,2013-10-14 02:30:00,
2013-10-13 21:35:00,40.0,36.7,30.29,NW,322,0.0,0.0,88,0.00,,---,0.00,VWS V14.00,2013-10-14 02:35:00,
2013-10-13 21:40:00,39.9,36.3,30.30,NW,322,0.0,0.0,87,0.00,,---,0.00,VWS V14.00,2013-10-14 02:40:00,
2013-10-13 21:45:00,39.8,36.5,30.30,NW,322,0.0,0.0,88,0.00,,---,0.00,VWS V14.00,2013-10-14 02:45:00,
2013-10-13 21:50:00,39.7,36.4,30.30,NW,322,0.0,0.0,88,0.00,,---,0.00,VWS V14.00,2013-10-14 02:50:00,
2013-10-13 21:55:00,39.5,36.0,30.30,NW,322,0.0,0.0,87,0.00,,---,0.00,VWS V14.00,2013-10-14 02:55:00,
2013-10-13 22:00:00,39.3,36.0,30.30,NW,322,0.0,0.0,88,0.00,,---,0.00,VWS V14.00,2013-10-14 03:00:00,
2013-10-13 22:05:00,39.4,36.4,30.30,NW,322,0.0,0.0,89,0.00,,---,0.00,VWS V14.00,2013-10-14 03:05:00,
2013-10-13 22:10:00,39.2,36.0,30.30,NW,322,0.0,0.0,88,0.00,,---,0.00,VWS V14.00,2013-10-14 03:10:00,
2013-10-13 22:15:00,38.8,35.6,30.30,NW,322,0.0,0.0,88,0.00,,---,0.00,VWS V14.00,2013-10-14 03:15:00,
2013-10-13 22:20:00,38.6,35.6,30.30,NW,322,0.0,0.0,89,0.00,,---,0.00,VWS V14.00,2013-10-14 03:20:00,
2013-10-13 22:25:00,38.7,35.7,30.30,NW,322,0.0,0.0,89,0.00,,---,0.00,VWS V14.00,2013-10-14 03:25:00,
2013-10-13 22:30:00,38.7,35.7,30.31,NW,322,0.0,0.0,89,0.00,,---,0.00,VWS V14.00,2013-10-14 03:30:00,
2013-10-13 22:35:00,38.5,35.5,30.31,NW,322,0.0,0.0,89,0.00,,---,0.00,VWS V14.00,2013-10-14 03:35:00,
2013-10-13 22:40:00,38.5,35.8,30.31,NW,322,0.0,0.0,90,0.00,,---,0.00,VWS V14.00,2013-10-14 03:40:00,
2013-10-13 22:45:00,38.2,35.2,30.31,NW,322,0.0,0.0,89,0.00,,---,0.00,VWS V14.00,2013-10-14 03:45:00,
2013-10-13 22:50:00,37.9,35.2,30.31,NW,322,0.0,0.0,90,0.00,,---,0.00,VWS V14.00,2013-10-14 03:50:00,
2013-10-13 22:55:00,37.8,35.1,30.31,NW,322,0.0,0.0,90,0.00,,---,0.00,VWS V14.00,2013-10-14 03:55:00,
2013-10-13 23:00:00,37.7,35.0,30.31,NW,322,0.0,0.0,90,0.00,,---,0.00,VWS V14.00,2013-10-14 04:00:00,
2013-10-13 23:01:00,37.7,35.0,30.31,NW,322,0.0,0.0,90,0.00,,---,0.00,VWS V14.00,2013-10-14 04:01:00,
2013-10-13 23:05:00,37.6,34.9,30.31,NW,322,0.0,0.0,90,0.00,,---,0.00,VWS V14.00,2013-10-14 04:05:00,
2013-10-13 23:06:00,37.6,35.2,30.31,NW,322,0.0,0.0,91,0.00,,---,0.00,VWS V14.00,2013-10-14 04:06:00,
2013-10-13 23:10:00,37.6,35.2,30.31,NW,322,0.0,0.0,91,0.00,,---,0.00,VWS V14.00,2013-10-14 04:10:00,
2013-10-13 23:11:00,37.5,35.1,30.31,NW,322,0.0,0.0,91,0.00,,---,0.00,VWS V14.00,2013-10-14 04:11:00,
2013-10-13 23:15:00,37.4,35.0,30.31,NW,322,0.0,0.0,91,0.00,,---,0.00,VWS V14.00,2013-10-14 04:15:00,
2013-10-13 23:16:00,37.3,34.9,30.31,NW,322,0.0,0.0,91,0.00,,---,0.00,VWS V14.00,2013-10-14 04:16:00,
2013-10-13 23:20:00,37.2,34.8,30.31,NW,322,0.0,0.0,91,0.00,,---,0.00,VWS V14.00,2013-10-14 04:20:00,
2013-10-13 23:21:00,37.1,34.7,30.31,NW,322,0.0,0.0,91,0.00,,---,0.00,VWS V14.00,2013-10-14 04:21:00,
2013-10-13 23:25:00,37.1,34.7,30.31,NW,322,0.0,0.0,91,0.00,,---,0.00,VWS V14.00,2013-10-14 04:25:00,
2013-10-13 23:26:00,37.2,34.8,30.31,NW,322,0.0,0.0,91,0.00,,---,0.00,VWS V14.00,2013-10-14 04:26:00,
2013-10-13 23:30:00,37.2,34.8,30.31,NW,322,0.0,0.0,91,0.00,,---,0.00,VWS V14.00,2013-10-14 04:30:00,
2013-10-13 23:31:00,37.1,34.7,30.31,NW,322,0.0,0.0,91,0.00,,---,0.00,VWS V14.00,2013-10-14 04:31:00,
2013-10-13 23:35:00,37.0,34.6,30.31,NW,322,0.0,0.0,91,0.00,,---,0.00,VWS V14.00,2013-10-14 04:35:00,
2013-10-13 23:36:00,37.1,35.0,30.31,NW,322,0.0,0.0,92,0.00,,---,0.00,VWS V14.00,2013-10-14 04:36:00,
2013-10-13 23:40:00,37.1,35.0,30.31,NW,322,0.0,0.0,92,0.00,,---,0.00,VWS V14.00,2013-10-14 04:40:00,
2013-10-13 23:41:00,37.0,34.6,30.31,NW,322,0.0,0.0,91,0.00,,---,0.00,VWS V14.00,2013-10-14 04:41:00,
2013-10-13 23:45:00,36.9,34.5,30.32,NW,322,0.0,0.0,91,0.00,,---,0.00,VWS V14.00,2013-10-14 04:45:00,
2013-10-13 23:46:00,36.8,34.7,30.31,NW,322,0.0,0.0,92,0.00,,---,0.00,VWS V14.00,2013-10-14 04:46:00,
2013-10-13 23:50:00,36.8,34.7,30.31,NW,322,0.0,0.0,92,0.00,,---,0.00,VWS V14.00,2013-10-14 04:50:00,
2013-10-13 23:51:00,36.8,34.7,30.31,NW,322,0.0,0.0,92,0.00,,---,0.00,VWS V14.00,2013-10-14 04:51:00,
2013-10-13 23:55:00,36.7,34.6,30.32,NW,322,0.0,0.0,92,0.00,,---,0.00,VWS V14.00,2013-10-14 04:55:00,
2013-10-13 23:56:00,36.6,34.5,30.32,NW,322,0.0,0.0,92,0.00,,---,0.00,VWS V14.00,2013-10-14 04:56:00,